Time;durP1;ratioP1;P1;durP2;ratioP2;P2;SDS_P1;SDS_P2;PMS_P1;PMS_P2;Temp;Humidity;BMP_temperature;BMP_pressure;BME280_temperature;BME280_humidity;BME280_pressure;Samples;Min_cycle;Max_cycle;Signal;HPM_P1;HPM_P2
2022/07/29 00:01:52;;;;;;;;;;;;;;;29.78;34.55;94190.44;5025371;28;7211;-62
2022/07/29 00:04:19;;;;;;;;;;;;;;;29.77;34.67;94186.19;5027168;28;8855;-62
2022/07/29 00:06:45;;;;;;;;;;;;;;;29.78;34.84;94187.66;5038514;28;8783;-62
2022/07/29 00:09:11;;;;;;;;;;;;;;;29.78;35.27;94182.88;5035296;28;7538;-62
2022/07/29 00:11:37;;;;;;;;;;;;;;;29.75;34.91;94172.88;5023825;28;9387;-62
2022/07/29 00:14:03;;;;;;;;;;;;;;;29.75;34.88;94177.69;5040179;28;9135;-62
2022/07/29 00:16:29;;;;;;;;;;;;;;;29.75;34.52;94177.69;5034730;28;6975;-62
2022/07/29 00:19:03;;;;;;;;;;;;;;;29.76;34.92;94176.38;5038088;28;7045;-62
2022/07/29 00:21:30;;;;;;;;;;;;;;;29.76;34.98;94173.63;5025779;28;7252;-62
2022/07/29 00:24:06;;;;;;;;;;;;;;;29.75;34.50;94169.38;5020452;28;7879;-62
2022/07/29 00:26:32;;;;;;;;;;;;;;;29.74;35.07;94173.41;5009841;28;7790;-62
2022/07/29 00:29:02;;;;;;;;;;;;;;;29.74;35.40;94165.09;5016851;28;9098;-62
2022/07/29 00:31:28;;;;;;;;;;;;;;;29.73;34.64;94160.81;5017437;28;7302;-62
2022/07/29 00:33:58;;;;;;;;;;;;;;;29.74;35.18;94160.31;5019519;28;9455;-62
2022/07/29 00:36:25;;;;;;;;;;;;;;;29.73;35.06;94158.78;5017424;28;7174;-62
2022/07/29 00:38:51;;;;;;;;;;;;;;;29.74;34.77;94167.88;5032408;28;7310;-62
2022/07/29 00:41:19;;;;;;;;;;;;;;;29.74;34.56;94159.56;5019115;28;7295;-62
2022/07/29 00:43:47;;;;;;;;;;;;;;;29.74;34.61;94162.31;5018606;28;7250;-62
2022/07/29 00:46:15;;;;;;;;;;;;;;;29.72;34.99;94159.31;5033883;28;7412;-62
2022/07/29 00:48:44;;;;;;;;;;;;;;;29.74;34.32;94156.78;5015898;28;7157;-62
2022/07/29 00:51:10;;;;;;;;;;;;;;;29.72;34.49;94154.53;5016976;28;9079;-62
2022/07/29 00:53:40;;;;;;;;;;;;;;;29.72;34.68;94151.00;5031140;28;7222;-62
2022/07/29 00:56:06;;;;;;;;;;;;;;;29.70;34.45;94139.72;5017772;28;7961;-62
2022/07/29 00:58:32;;;;;;;;;;;;;;;29.72;35.13;94139.94;5015875;28;8188;-62
2022/07/29 01:00:58;;;;;;;;;;;;;;;29.70;34.61;94142.50;5032808;28;8974;-62
2022/07/29 01:03:26;;;;;;;;;;;;;;;29.70;34.65;94148.03;5022741;28;7356;-62
2022/07/29 01:05:54;;;;;;;;;;;;;;;29.69;34.94;94136.19;5018342;28;7368;-62
2022/07/29 01:08:23;;;;;;;;;;;;;;;29.69;34.43;94132.69;5024648;28;7027;-62
2022/07/29 01:10:54;;;;;;;;;;;;;;;29.68;35.37;94128.44;5034095;28;7068;-62
2022/07/29 01:13:20;;;;;;;;;;;;;;;29.69;34.56;94129.91;5018964;28;9065;-62
2022/07/29 01:15:55;;;;;;;;;;;;;;;29.69;34.63;94129.91;5016880;28;7024;-62
2022/07/29 01:18:33;;;;;;;;;;;;;;;29.66;35.26;94117.16;5033754;28;7166;-62
2022/07/29 01:21:50;;;;;;;;;;;;;;;29.69;34.32;94121.59;5027253;28;9092;-62
2022/07/29 01:25:00;;;;;;;;;;;;;;;29.67;34.07;94124.91;5018944;28;9275;-62
2022/07/29 01:28:09;;;;;;;;;;;;;;;29.66;34.49;94117.16;5018503;28;9415;-62
2022/07/29 01:30:54;;;;;;;;;;;;;;;29.67;35.28;94115.84;5002613;28;7629;-62
2022/07/29 01:36:17;;;;;;;;;;;;;;;29.67;35.15;94113.84;5013064;28;8723;-62
2022/07/29 01:38:53;;;;;;;;;;;;;;;29.66;35.54;94112.38;4996356;28;7016;-62
2022/07/29 01:41:23;;;;;;;;;;;;;;;29.65;35.16;94121.19;4997078;28;8175;-62
2022/07/29 01:43:59;;;;;;;;;;;;;;;29.64;34.20;94123.25;4998565;28;9546;-62
2022/07/29 01:46:38;;;;;;;;;;;;;;;29.64;34.81;94122.50;5006085;28;9113;-62
2022/07/29 01:49:18;;;;;;;;;;;;;;;29.64;35.10;94120.47;5017361;28;7216;-62
2022/07/29 01:52:27;;;;;;;;;;;;;;;29.65;34.62;94115.66;5015663;28;8833;-62
2022/07/29 01:55:27;;;;;;;;;;;;;;;29.64;35.32;94103.84;4931678;29;7237;-62
2022/07/29 01:58:00;;;;;;;;;;;;;;;29.63;34.52;94110.66;4867739;29;7351;-62
2022/07/29 02:00:34;;;;;;;;;;;;;;;29.64;34.64;94114.94;4880642;29;7195;-62
2022/07/29 02:03:09;;;;;;;;;;;;;;;29.63;34.59;94115.47;4870353;29;7153;-62
2022/07/29 02:05:42;;;;;;;;;;;;;;;29.63;34.82;94112.69;4883196;29;7374;-62
2022/07/29 02:08:11;;;;;;;;;;;;;;;29.63;34.53;94118.97;4897740;29;7259;-62
2022/07/29 02:10:52;;;;;;;;;;;;;;;29.62;34.43;94117.50;4904147;29;9131;-62
2022/07/29 02:13:22;;;;;;;;;;;;;;;29.63;34.68;94118.22;4900146;29;9268;-62
2022/07/29 02:15:55;;;;;;;;;;;;;;;29.62;35.02;94114.72;4902815;29;7393;-62
2022/07/29 02:18:58;;;;;;;;;;;;;;;29.62;34.59;94123.03;4891783;29;7314;-62
2022/07/29 02:21:35;;;;;;;;;;;;;;;29.57;34.78;94115.63;4904394;29;7342;-62
2022/07/29 02:24:04;;;;;;;;;;;;;;;29.58;34.67;94121.91;4905826;29;7246;-62
2022/07/29 02:26:37;;;;;;;;;;;;;;;29.59;34.23;94115.06;4892989;29;7313;-62
2022/07/29 02:29:14;;;;;;;;;;;;;;;29.58;34.37;94122.63;4889622;29;6997;-62
2022/07/29 02:31:58;;;;;;;;;;;;;;;29.56;34.62;94114.13;4940589;28;9506;-62
2022/07/29 02:34:54;;;;;;;;;;;;;;;29.58;35.08;94121.91;4985664;28;9481;-62
2022/07/29 02:37:21;;;;;;;;;;;;;;;29.57;34.70;94131.50;5010967;28;7507;-62
2022/07/29 02:39:58;;;;;;;;;;;;;;;29.57;34.93;94131.50;5017832;28;9144;-62
2022/07/29 02:42:28;;;;;;;;;;;;;;;29.57;34.67;94132.25;5008115;28;7351;-62
2022/07/29 02:45:05;;;;;;;;;;;;;;;29.56;35.05;94124.47;5006172;28;9118;-62
2022/07/29 02:47:50;;;;;;;;;;;;;;;29.55;34.25;94117.44;5022885;28;8994;-62
2022/07/29 02:50:49;;;;;;;;;;;;;;;29.56;35.02;94118.91;5023095;28;6995;-62
2022/07/29 02:53:21;;;;;;;;;;;;;;;29.56;35.20;94118.91;4970062;28;8717;-62
2022/07/29 02:56:12;;;;;;;;;;;;;;;29.55;34.42;94123.00;4953886;28;7435;-62
2022/07/29 02:59:00;;;;;;;;;;;;;;;29.54;34.31;94111.16;4954506;28;7297;-62
2022/07/29 03:01:46;;;;;;;;;;;;;;;29.53;34.53;94108.94;4969526;28;9696;-62
2022/07/29 03:04:32;;;;;;;;;;;;;;;29.54;34.70;94116.69;4969830;28;9386;-62
2022/07/29 03:07:01;;;;;;;;;;;;;;;29.53;34.56;94114.47;4970881;28;7230;-62
2022/07/29 03:09:30;;;;;;;;;;;;;;;29.53;34.78;94120.78;4954115;28;7269;-62
2022/07/29 03:12:00;;;;;;;;;;;;;;;29.52;34.60;94124.06;4969447;28;7413;-62
2022/07/29 03:14:31;;;;;;;;;;;;;;;29.53;34.80;94122.78;4970546;28;8313;-62
2022/07/29 03:16:58;;;;;;;;;;;;;;;29.52;34.77;94126.84;4970368;28;9291;-62
2022/07/29 03:19:40;;;;;;;;;;;;;;;29.51;34.60;94130.91;4946634;28;7049;-62
2022/07/29 03:22:43;;;;;;;;;;;;;;;29.51;34.29;94139.97;4969730;28;7149;-62
2022/07/29 03:25:20;;;;;;;;;;;;;;;29.50;34.50;94144.00;4915745;29;7250;-62
2022/07/29 03:27:48;;;;;;;;;;;;;;;29.50;34.55;94141.25;4930829;29;7686;-62
2022/07/29 03:30:26;;;;;;;;;;;;;;;29.52;34.19;94151.78;4958308;28;8663;-62
2022/07/29 03:32:57;;;;;;;;;;;;;;;29.50;34.93;94157.13;4953750;28;9413;-62
2022/07/29 03:35:38;;;;;;;;;;;;;;;29.50;34.44;94160.66;4951827;28;7618;-62
2022/07/29 03:38:18;;;;;;;;;;;;;;;29.50;34.45;94171.72;4968669;28;7065;-62
2022/07/29 03:41:03;;;;;;;;;;;;;;;29.49;34.50;94169.50;4965269;28;9201;-62
2022/07/29 03:43:42;;;;;;;;;;;;;;;29.50;35.24;94160.66;4953960;28;7266;-62
2022/07/29 03:46:22;;;;;;;;;;;;;;;29.49;34.51;94153.59;4954522;28;6989;-62
2022/07/29 03:49:25;;;;;;;;;;;;;;;29.48;34.41;94156.94;4968207;28;9137;-62
2022/07/29 03:51:52;;;;;;;;;;;;;;;29.47;34.65;94150.63;4954993;28;9110;-62
2022/07/29 03:54:53;;;;;;;;;;;;;;;29.48;34.71;94151.38;4955664;28;7166;-62
2022/07/29 03:57:31;;;;;;;;;;;;;;;29.48;34.98;94156.94;4952884;28;9194;-62
2022/07/29 04:00:09;;;;;;;;;;;;;;;29.47;34.08;94164.50;4936265;28;9466;-62
2022/07/29 04:02:40;;;;;;;;;;;;;;;29.47;34.22;94166.53;4953452;28;8987;-62
2022/07/29 04:05:19;;;;;;;;;;;;;;;29.45;34.98;94167.06;4937604;28;9501;-62
2022/07/29 04:07:55;;;;;;;;;;;;;;;29.45;34.36;94169.13;4938281;28;7221;-62
2022/07/29 04:10:39;;;;;;;;;;;;;;;29.45;34.32;94171.88;4938267;28;7018;-62
2022/07/29 04:13:05;;;;;;;;;;;;;;;29.44;34.69;94159.31;4954485;28;7490;-62
2022/07/29 04:15:33;;;;;;;;;;;;;;;29.43;34.23;94155.78;4937034;28;7021;-62
2022/07/29 04:17:59;;;;;;;;;;;;;;;29.45;34.98;94149.72;4953014;28;7497;-62
2022/07/29 04:20:27;;;;;;;;;;;;;;;29.42;34.70;94146.00;4932072;28;7121;-62
2022/07/29 04:22:55;;;;;;;;;;;;;;;29.44;34.60;94148.97;4933336;28;9146;-62
2022/07/29 04:25:21;;;;;;;;;;;;;;;29.47;35.00;94147.88;4947504;28;7260;-62
2022/07/29 04:28:02;;;;;;;;;;;;;;;29.47;34.75;94152.69;4944885;28;7191;-62
2022/07/29 04:30:30;;;;;;;;;;;;;;;29.48;34.56;94145.84;4950236;28;9339;-62
2022/07/29 04:32:57;;;;;;;;;;;;;;;29.48;33.96;94151.38;4992940;28;8372;-62
2022/07/29 04:35:26;;;;;;;;;;;;;;;29.50;34.55;94144.00;5018679;28;7273;-62
2022/07/29 04:37:54;;;;;;;;;;;;;;;29.49;34.36;94130.72;5017770;28;9704;-62
2022/07/29 04:40:29;;;;;;;;;;;;;;;29.50;34.56;94132.19;5018335;28;9925;-62
2022/07/29 04:43:09;;;;;;;;;;;;;;;29.51;34.48;94134.44;5029995;28;7377;-62
2022/07/29 04:45:40;;;;;;;;;;;;;;;29.51;34.54;94139.97;5023319;28;7089;-62
2022/07/29 04:48:16;;;;;;;;;;;;;;;29.49;34.07;94133.47;5023015;28;7465;-62
2022/07/29 04:50:42;;;;;;;;;;;;;;;29.49;35.11;94128.66;5038225;28;9919;-62
2022/07/29 04:53:14;;;;;;;;;;;;;;;29.50;34.14;94123.88;5021496;28;9094;-62
2022/07/29 04:55:42;;;;;;;;;;;;;;;29.51;34.60;94128.13;5022729;28;9596;-62
2022/07/29 04:58:15;;;;;;;;;;;;;;;29.51;34.56;94128.13;5028481;28;7003;-62
2022/07/29 05:00:41;;;;;;;;;;;;;;;29.48;34.42;94123.66;5014741;28;7313;-62
2022/07/29 05:03:07;;;;;;;;;;;;;;;29.51;34.57;94133.69;5015460;28;7254;-62
2022/07/29 05:05:33;;;;;;;;;;;;;;;29.51;34.17;94133.69;5017672;28;7103;-62
2022/07/29 05:07:59;;;;;;;;;;;;;;;29.52;35.00;94132.38;5032428;28;9219;-62
2022/07/29 05:10:25;;;;;;;;;;;;;;;29.51;34.28;94139.22;5017366;28;7256;-62
2022/07/29 05:12:51;;;;;;;;;;;;;;;29.49;34.68;94125.16;5019271;28;7161;-62
2022/07/29 05:15:19;;;;;;;;;;;;;;;29.50;34.71;94129.41;5021125;28;7162;-62
2022/07/29 05:17:48;;;;;;;;;;;;;;;29.49;34.24;94125.16;5023608;28;7066;-62
2022/07/29 05:20:14;;;;;;;;;;;;;;;29.49;34.84;94120.34;5012274;28;7296;-62
2022/07/29 05:22:44;;;;;;;;;;;;;;;29.49;34.36;94125.91;5035803;28;7234;-62
2022/07/29 05:25:17;;;;;;;;;;;;;;;29.47;34.73;94128.47;5036230;28;9318;-62
2022/07/29 05:27:53;;;;;;;;;;;;;;;29.47;34.24;94131.22;5017882;28;9071;-62
2022/07/29 05:30:28;;;;;;;;;;;;;;;29.50;34.60;94140.50;5036600;28;7120;-62
2022/07/29 05:33:08;;;;;;;;;;;;;;;29.48;34.79;94132.72;5022646;28;9232;-62
2022/07/29 05:35:44;;;;;;;;;;;;;;;29.47;33.86;94136.06;5019540;28;8113;-62
2022/07/29 05:38:15;;;;;;;;;;;;;;;29.47;34.95;94142.31;5034238;28;7239;-62
2022/07/29 05:40:42;;;;;;;;;;;;;;;29.47;34.17;94144.38;5036535;28;7391;-62
2022/07/29 05:43:14;;;;;;;;;;;;;;;29.46;34.57;94137.34;5032752;28;7216;-62
2022/07/29 05:45:40;;;;;;;;;;;;;;;29.46;34.15;94138.06;5039977;28;7067;-62
2022/07/29 05:48:09;;;;;;;;;;;;;;;29.45;34.46;94146.94;5023640;28;7863;-62
2022/07/29 05:50:35;;;;;;;;;;;;;;;29.44;34.47;94146.19;5018514;28;7087;-62
2022/07/29 05:53:07;;;;;;;;;;;;;;;29.46;34.39;94151.19;5040554;28;9091;-62
2022/07/29 05:55:43;;;;;;;;;;;;;;;29.48;34.24;94151.38;5023018;28;7510;-62
2022/07/29 05:58:09;;;;;;;;;;;;;;;29.47;34.40;94147.13;5018853;28;7229;-62
2022/07/29 06:00:44;;;;;;;;;;;;;;;29.46;34.44;94148.41;5021292;28;8249;-62
2022/07/29 06:03:12;;;;;;;;;;;;;;;29.48;34.13;94154.16;5022631;28;10037;-62
2022/07/29 06:06:09;;;;;;;;;;;;;;;29.48;34.87;94159.69;5016234;28;7311;-62
2022/07/29 06:08:44;;;;;;;;;;;;;;;29.47;34.47;94161.72;5019797;28;7231;-62
2022/07/29 06:11:12;;;;;;;;;;;;;;;29.48;34.34;94168.00;5008623;28;7260;-62
2022/07/29 06:13:42;;;;;;;;;;;;;;;29.47;34.58;94158.22;5019050;28;7990;-62
2022/07/29 06:16:08;;;;;;;;;;;;;;;29.47;34.49;94166.53;5018089;28;7374;-62
2022/07/29 06:18:36;;;;;;;;;;;;;;;29.46;34.03;94170.59;5000181;28;9099;-62
2022/07/29 06:21:08;;;;;;;;;;;;;;;29.47;34.15;94191.47;5003554;28;7027;-62
2022/07/29 06:23:45;;;;;;;;;;;;;;;29.43;34.76;94185.50;5018650;28;8937;-62
2022/07/29 06:26:13;;;;;;;;;;;;;;;29.39;34.86;94193.41;5003799;28;8787;-63
2022/07/29 06:28:51;;;;;;;;;;;;;;;29.39;34.72;94210.03;5009241;28;9350;-62
2022/07/29 06:31:19;;;;;;;;;;;;;;;29.36;34.51;94214.63;5008692;28;9407;-62
2022/07/29 06:33:56;;;;;;;;;;;;;;;29.34;34.36;94219.97;5011409;28;9038;-62
2022/07/29 06:36:24;;;;;;;;;;;;;;;29.33;34.79;94228.84;4999773;28;7415;-62
2022/07/29 06:38:51;;;;;;;;;;;;;;;29.32;34.75;94246.75;5001025;28;8800;-62
2022/07/29 06:41:18;;;;;;;;;;;;;;;29.32;34.62;94266.88;5008126;28;9246;-62
2022/07/29 06:43:47;;;;;;;;;;;;;;;29.30;34.82;94263.91;5015855;28;7020;-62
2022/07/29 06:46:19;;;;;;;;;;;;;;;29.31;35.06;94270.94;5016761;28;9471;-62
2022/07/29 06:48:47;;;;;;;;;;;;;;;29.31;34.75;94272.97;5016013;28;7180;-62
2022/07/29 06:51:15;;;;;;;;;;;;;;;29.30;35.08;94269.44;5014637;28;7087;-62
2022/07/29 06:53:40;;;;;;;;;;;;;;;29.28;35.35;94271.25;5017252;28;7041;-62
2022/07/29 06:56:12;;;;;;;;;;;;;;;29.28;35.16;94272.00;5014974;28;8295;-62
2022/07/29 06:58:38;;;;;;;;;;;;;;;29.30;35.10;94277.00;5014317;28;9332;-62
2022/07/29 07:01:06;;;;;;;;;;;;;;;29.29;35.57;94273.50;5013503;28;8176;-62
2022/07/29 07:03:35;;;;;;;;;;;;;;;29.29;35.73;94261.69;5017085;28;9450;-62
2022/07/29 07:06:03;;;;;;;;;;;;;;;29.29;35.22;94265.19;5018364;28;7224;-62
2022/07/29 07:08:29;;;;;;;;;;;;;;;29.25;35.20;94255.72;5015562;28;7244;-62
2022/07/29 07:10:57;;;;;;;;;;;;;;;29.28;35.29;94251.88;5015350;28;8180;-62
2022/07/29 07:13:25;;;;;;;;;;;;;;;29.25;35.17;94247.41;5017358;28;7221;-62
2022/07/29 07:15:54;;;;;;;;;;;;;;;29.26;34.95;94243.34;5020802;28;9067;-62
2022/07/29 07:18:23;;;;;;;;;;;;;;;29.27;35.09;94242.09;5022702;28;9168;-62
2022/07/29 07:20:49;;;;;;;;;;;;;;;29.26;35.22;94246.13;5019781;28;9066;-62
2022/07/29 07:23:24;;;;;;;;;;;;;;;29.27;35.06;94253.91;5017245;28;9115;-62
2022/07/29 07:25:51;;;;;;;;;;;;;;;29.27;35.51;94242.84;5035193;28;7269;-62
2022/07/29 07:28:17;;;;;;;;;;;;;;;29.26;35.18;94235.03;5033284;28;8051;-62
2022/07/29 07:30:45;;;;;;;;;;;;;;;29.27;35.00;94242.09;5018494;28;9820;-62
2022/07/29 07:33:11;;;;;;;;;;;;;;;29.27;35.81;94244.84;5018383;28;7239;-62
2022/07/29 07:35:37;;;;;;;;;;;;;;;29.23;35.67;94242.41;5017933;28;9496;-62
2022/07/29 07:38:05;;;;;;;;;;;;;;;29.24;35.01;94235.59;5019914;28;7072;-62
2022/07/29 07:40:32;;;;;;;;;;;;;;;29.23;35.82;94238.91;5017744;28;7320;-62
2022/07/29 07:42:58;;;;;;;;;;;;;;;29.23;35.50;94241.66;5033391;28;7187;-62
2022/07/29 07:45:26;;;;;;;;;;;;;;;29.23;35.64;94250.72;5017756;28;9097;-62
2022/07/29 07:47:54;;;;;;;;;;;;;;;29.22;36.14;94254.78;5034678;28;7610;-63
2022/07/29 07:50:20;;;;;;;;;;;;;;;29.23;35.75;94261.06;5018075;28;7179;-62
2022/07/29 07:52:54;;;;;;;;;;;;;;;29.19;35.96;94263.44;5024827;28;6988;-62
2022/07/29 07:55:21;;;;;;;;;;;;;;;29.21;36.01;94252.56;5021463;28;7066;-62
2022/07/29 07:57:58;;;;;;;;;;;;;;;29.23;35.84;94253.47;5027780;28;7274;-62
2022/07/29 08:00:27;;;;;;;;;;;;;;;29.23;36.05;94249.97;5025650;28;9214;-62
2022/07/29 08:02:53;;;;;;;;;;;;;;;29.23;35.74;94252.75;5016615;28;9099;-62
2022/07/29 08:05:22;;;;;;;;;;;;;;;29.23;36.02;94249.97;5032996;28;7248;-62
2022/07/29 08:07:50;;;;;;;;;;;;;;;29.22;35.55;94249.22;5017651;28;7012;-62
2022/07/29 08:10:51;;;;;;;;;;;;;;;29.22;35.78;94252.00;5022592;28;7252;-62
2022/07/29 08:13:07;;;;;;;;;;;;;;;29.22;35.47;94249.22;5015966;28;7004;-62
2022/07/29 08:15:37;;;;;;;;;;;;;;;29.21;35.95;94250.50;5036084;28;8898;-62
2022/07/29 08:18:17;;;;;;;;;;;;;;;29.22;36.24;94254.78;5035658;28;7267;-62
2022/07/29 08:20:50;;;;;;;;;;;;;;;29.23;35.99;94250.72;5023518;28;7242;-62
2022/07/29 08:23:23;;;;;;;;;;;;;;;29.24;36.03;94259.78;5036889;28;7528;-62
2022/07/29 08:26:00;;;;;;;;;;;;;;;29.26;36.42;94259.97;5023080;28;8953;-62
2022/07/29 08:28:40;;;;;;;;;;;;;;;29.28;35.84;94271.25;5021974;28;7271;-62
2022/07/29 08:31:09;;;;;;;;;;;;;;;29.27;35.91;94259.44;5021578;28;7163;-62
2022/07/29 08:33:40;;;;;;;;;;;;;;;29.30;35.86;94268.69;5037172;28;7365;-62
2022/07/29 08:36:15;;;;;;;;;;;;;;;29.32;36.41;94272.41;5020790;28;7393;-62
2022/07/29 08:38:43;;;;;;;;;;;;;;;29.33;35.80;94284.25;5036543;28;9018;-62
2022/07/29 08:41:21;;;;;;;;;;;;;;;29.35;35.76;94284.44;5019645;28;7238;-62
2022/07/29 08:43:58;;;;;;;;;;;;;;;29.35;36.07;94276.13;5029128;28;8283;-62
2022/07/29 08:46:29;;;;;;;;;;;;;;;29.35;35.84;94276.88;5023674;28;9171;-62
2022/07/29 08:49:02;;;;;;;;;;;;;;;29.37;35.98;94279.13;5038200;28;7288;-62
2022/07/29 08:51:33;;;;;;;;;;;;;;;29.37;36.27;94276.34;5025037;28;7638;-62
2022/07/29 08:54:27;;;;;;;;;;;;;;;29.38;36.31;94264.75;5037604;28;7000;-62
2022/07/29 08:56:56;;;;;;;;;;;;;;;29.39;35.58;94266.22;5020646;28;7042;-62
2022/07/29 08:59:42;;;;;;;;;;;;;;;29.41;35.84;94266.41;5023586;28;7192;-62
2022/07/29 09:02:19;;;;;;;;;;;;;;;29.39;35.93;94266.22;5028967;28;9519;-62
2022/07/29 09:05:00;;;;;;;;;;;;;;;29.42;35.99;94272.72;5025068;28;7671;-63
2022/07/29 09:07:30;;;;;;;;;;;;;;;29.38;35.88;94267.50;5023260;28;7482;-62
2022/07/29 09:10:06;;;;;;;;;;;;;;;29.41;36.05;94269.19;5029420;28;8838;-62
2022/07/29 09:12:40;;;;;;;;;;;;;;;29.42;36.83;94261.63;5022313;28;7316;-62
2022/07/29 09:15:06;;;;;;;;;;;;;;;29.42;36.56;94258.84;5036998;28;9084;-62
2022/07/29 09:17:46;;;;;;;;;;;;;;;29.43;36.17;94258.31;5016590;28;7263;-62
2022/07/29 09:20:19;;;;;;;;;;;;;;;29.44;36.52;94259.81;5018171;28;7221;-62
2022/07/29 09:22:49;;;;;;;;;;;;;;;29.46;36.49;94264.81;5012664;28;9036;-62
2022/07/29 09:25:37;;;;;;;;;;;;;;;29.44;36.18;94273.66;5016759;28;7000;-62
2022/07/29 09:28:10;;;;;;;;;;;;;;;29.46;37.19;94265.56;5032785;28;7298;-62
2022/07/29 09:30:53;;;;;;;;;;;;;;;29.46;36.85;94262.78;5016374;28;7050;-62
2022/07/29 09:33:21;;;;;;;;;;;;;;;29.47;36.85;94255.94;5015259;28;7217;-62
2022/07/29 09:36:03;;;;;;;;;;;;;;;29.49;36.59;94252.66;5015744;28;9097;-62
2022/07/29 09:39:02;;;;;;;;;;;;;;;29.48;36.76;94254.66;5021297;28;6999;-63
2022/07/29 09:41:54;;;;;;;;;;;;;;;29.47;36.77;94255.22;5018530;28;7831;-62
2022/07/29 09:44:50;;;;;;;;;;;;;;;29.48;37.37;94256.69;5023402;28;7755;-62
2022/07/29 09:47:48;;;;;;;;;;;;;;;29.48;37.36;94262.97;5022070;28;7170;-62
2022/07/29 09:50:18;;;;;;;;;;;;;;;29.48;37.44;94259.47;5017130;28;7212;-62
2022/07/29 09:52:51;;;;;;;;;;;;;;;29.49;37.62;94249.88;5038416;28;7088;-62
2022/07/29 09:55:25;;;;;;;;;;;;;;;29.49;37.30;94252.66;5032859;28;7272;-62
2022/07/29 09:58:27;;;;;;;;;;;;;;;29.49;37.42;94247.09;5019924;28;8038;-62
2022/07/29 10:00:54;;;;;;;;;;;;;;;29.46;37.77;94251.69;5021602;28;7260;-62
2022/07/29 10:03:51;;;;;;;;;;;;;;;29.47;37.51;94257.97;5020702;28;9087;-62
2022/07/29 10:06:20;;;;;;;;;;;;;;;29.46;38.21;94254.47;5022428;28;7052;-62
2022/07/29 10:09:16;;;;;;;;;;;;;;;29.47;37.45;94255.22;5020035;28;8751;-62
2022/07/29 10:12:14;;;;;;;;;;;;;;;29.47;37.97;94255.94;5026324;28;7279;-62
2022/07/29 10:14:41;;;;;;;;;;;;;;;29.45;37.98;94246.69;5003865;28;9133;-62
2022/07/29 10:17:09;;;;;;;;;;;;;;;29.47;38.06;94253.16;5008066;28;9074;-62
2022/07/29 10:19:38;;;;;;;;;;;;;;;29.46;38.08;94253.72;5012831;28;8083;-62
2022/07/29 10:22:15;;;;;;;;;;;;;;;29.46;37.64;94248.16;5010624;28;7232;-62
2022/07/29 10:24:43;;;;;;;;;;;;;;;29.47;37.61;94239.31;5030146;28;7548;-62
2022/07/29 10:27:48;;;;;;;;;;;;;;;29.44;38.15;94242.44;5005895;28;7119;-62
2022/07/29 10:30:17;;;;;;;;;;;;;;;29.43;37.69;94235.38;4954639;28;6914;-62
2022/07/29 10:33:05;;;;;;;;;;;;;;;29.42;38.35;94237.44;4970384;28;8602;-62
2022/07/29 10:36:13;;;;;;;;;;;;;;;29.41;38.17;94243.50;4970501;28;7245;-62
2022/07/29 10:39:26;;;;;;;;;;;;;;;29.39;38.31;94248.84;4969216;28;7215;-62
2022/07/29 10:42:25;;;;;;;;;;;;;;;29.39;38.06;94238.50;4968185;28;8963;-62
2022/07/29 10:45:06;;;;;;;;;;;;;;;29.40;38.16;94240.00;4954172;28;7239;-62
2022/07/29 10:48:10;;;;;;;;;;;;;;;29.41;38.22;94230.41;4955802;28;7006;-62
2022/07/29 10:51:22;;;;;;;;;;;;;;;29.42;38.57;94231.91;4948325;29;7263;-62
2022/07/29 10:54:13;;;;;;;;;;;;;;;29.42;38.26;94231.16;4914672;29;9113;-62
2022/07/29 10:56:40;;;;;;;;;;;;;;;29.41;38.38;94229.66;4930563;29;9655;-62
2022/07/29 10:59:26;;;;;;;;;;;;;;;29.44;37.79;94234.13;4915252;29;7709;-62
2022/07/29 11:01:57;;;;;;;;;;;;;;;29.45;38.40;94230.78;4918053;29;7037;-62
2022/07/29 11:04:45;;;;;;;;;;;;;;;29.44;37.72;94240.41;4917253;29;6994;-62
2022/07/29 11:07:12;;;;;;;;;;;;;;;29.41;38.61;94224.09;4914093;29;7132;-62
2022/07/29 11:09:38;;;;;;;;;;;;;;;29.45;37.87;94235.63;4914774;29;7273;-62
2022/07/29 11:12:36;;;;;;;;;;;;;;;29.46;38.72;94237.84;4913586;29;7178;-62
2022/07/29 11:15:05;;;;;;;;;;;;;;;29.46;38.40;94234.31;4930090;28;7433;-62
2022/07/29 11:17:53;;;;;;;;;;;;;;;29.46;38.33;94248.16;4932094;28;7945;-62
2022/07/29 11:20:38;;;;;;;;;;;;;;;29.45;38.32;94241.16;4919745;29;7259;-62
2022/07/29 11:23:38;;;;;;;;;;;;;;;29.44;38.08;94234.88;4919551;29;7279;-62
2022/07/29 11:26:31;;;;;;;;;;;;;;;29.45;38.19;94230.06;4931585;28;7010;-62
2022/07/29 11:29:05;;;;;;;;;;;;;;;29.43;38.18;94232.63;4927143;28;9290;-62
2022/07/29 11:32:18;;;;;;;;;;;;;;;29.44;37.76;94223.78;4980145;28;9096;-62
2022/07/29 11:35:23;;;;;;;;;;;;;;;29.45;37.73;94227.31;5010854;28;8866;-62
2022/07/29 11:38:32;;;;;;;;;;;;;;;29.45;37.84;94235.63;4954070;28;7290;-62
2022/07/29 11:41:35;;;;;;;;;;;;;;;29.41;37.85;94235.94;4937790;28;9047;-62
2022/07/29 11:44:12;;;;;;;;;;;;;;;29.39;37.78;94221.88;4952736;28;9122;-62
2022/07/29 11:47:19;;;;;;;;;;;;;;;29.43;37.48;94229.84;4938089;28;7223;-62
2022/07/29 11:50:09;;;;;;;;;;;;;;;29.42;37.91;94231.16;4895800;29;9535;-62
2022/07/29 11:53:15;;;;;;;;;;;;;;;29.44;37.52;94234.13;4881271;29;7247;-62
2022/07/29 11:56:01;;;;;;;;;;;;;;;29.41;37.71;94229.66;4881911;29;7275;-62
2022/07/29 11:59:09;;;;;;;;;;;;;;;29.42;38.59;94225.59;4896470;29;7262;-62
2022/07/29 12:02:02;;;;;;;;;;;;;;;29.42;38.63;94231.16;4843854;29;9132;-62
2022/07/29 12:04:52;;;;;;;;;;;;;;;29.43;38.11;94240.94;4844286;29;7745;-62
2022/07/29 12:07:25;;;;;;;;;;;;;;;29.41;37.84;94246.28;4840610;29;8066;-62
2022/07/29 12:10:06;;;;;;;;;;;;;;;29.43;38.30;94243.69;4840566;29;9100;-62
2022/07/29 12:13:03;;;;;;;;;;;;;;;29.41;37.83;94257.34;4822785;29;7244;-62
2022/07/29 12:15:29;;;;;;;;;;;;;;;29.43;38.08;94266.63;4878253;29;6984;-62
2022/07/29 12:17:55;;;;;;;;;;;;;;;29.44;37.60;94262.56;4877945;29;7640;-62
2022/07/29 12:20:29;;;;;;;;;;;;;;;29.43;37.95;94266.63;4861996;29;9081;-63
2022/07/29 12:23:13;;;;;;;;;;;;;;;29.43;38.04;94271.41;4888170;28;8971;-62
2022/07/29 12:25:42;;;;;;;;;;;;;;;29.44;38.28;94264.59;4934772;29;7116;-62
2022/07/29 12:28:25;;;;;;;;;;;;;;;29.43;38.10;94265.88;4935543;28;7222;-62
2022/07/29 12:31:12;;;;;;;;;;;;;;;29.43;38.31;94260.31;4934239;29;9149;-62
2022/07/29 12:34:00;;;;;;;;;;;;;;;29.45;37.83;94274.41;4934735;28;9092;-62
2022/07/29 12:36:26;;;;;;;;;;;;;;;29.46;38.06;94273.13;4936343;28;7065;-62
2022/07/29 12:38:55;;;;;;;;;;;;;;;29.46;37.65;94278.66;5007150;28;8842;-62
2022/07/29 12:41:39;;;;;;;;;;;;;;;29.47;37.90;94275.34;5014652;28;7254;-62
2022/07/29 12:44:09;;;;;;;;;;;;;;;29.46;38.59;94273.88;5007608;28;8762;-62
2022/07/29 12:47:03;;;;;;;;;;;;;;;29.47;38.24;94288.47;5025561;28;7581;-62
2022/07/29 12:50:06;;;;;;;;;;;;;;;29.44;38.81;94292.31;5012624;28;7449;-62
2022/07/29 12:53:10;;;;;;;;;;;;;;;29.45;38.18;94297.31;5021912;28;7473;-62
2022/07/29 12:55:51;;;;;;;;;;;;;;;29.42;37.76;94297.66;5003739;28;9028;-62
2022/07/29 12:58:55;;;;;;;;;;;;;;;29.41;37.68;94299.66;5006511;28;9191;-62
2022/07/29 13:01:38;;;;;;;;;;;;;;;29.42;38.07;94297.66;4946566;28;8802;-62
2022/07/29 13:04:05;;;;;;;;;;;;;;;29.38;38.46;94303.53;4937627;28;7201;-62
2022/07/29 13:07:07;;;;;;;;;;;;;;;29.42;38.51;94308.72;4952431;28;7267;-61
2022/07/29 13:09:48;;;;;;;;;;;;;;;29.43;38.26;94301.88;4928733;28;9211;-62
2022/07/29 13:12:18;;;;;;;;;;;;;;;29.44;38.51;94306.91;4950255;28;7193;-62
2022/07/29 13:14:47;;;;;;;;;;;;;;;29.45;37.68;94310.44;4931693;28;7409;-62
2022/07/29 13:17:12;;;;;;;;;;;;;;;29.44;37.90;94317.25;4944181;28;7234;-62
2022/07/29 13:19:45;;;;;;;;;;;;;;;29.45;38.14;94313.94;4946695;28;7020;-62
2022/07/29 13:22:14;;;;;;;;;;;;;;;29.46;37.56;94309.13;4930895;28;9098;-62
2022/07/29 13:24:54;;;;;;;;;;;;;;;29.47;38.13;94314.13;4944445;28;8955;-62
2022/07/29 13:27:27;;;;;;;;;;;;;;;29.49;37.75;94317.09;4947213;28;7246;-62
2022/07/29 13:29:59;;;;;;;;;;;;;;;29.50;38.26;94312.31;4937718;28;9133;-62
2022/07/29 13:32:27;;;;;;;;;;;;;;;29.51;38.02;94322.13;4988753;28;7038;-62
2022/07/29 13:34:54;;;;;;;;;;;;;;;29.51;37.38;94316.59;5015315;28;7239;-62
2022/07/29 13:37:23;;;;;;;;;;;;;;;29.46;37.89;94318.19;5017880;28;6996;-62
2022/07/29 13:39:49;;;;;;;;;;;;;;;29.48;37.42;94323.94;5015135;28;9466;-62
2022/07/29 13:42:15;;;;;;;;;;;;;;;29.50;37.41;94326.19;5031012;28;9058;-62
2022/07/29 13:44:41;;;;;;;;;;;;;;;29.49;37.98;94325.41;5029155;28;7266;-62
2022/07/29 13:47:10;;;;;;;;;;;;;;;29.51;37.44;94324.91;5015798;28;9421;-62
2022/07/29 13:49:36;;;;;;;;;;;;;;;29.50;37.18;94321.38;5015689;28;9556;-62